Time;durP1;ratioP1;P1;durP2;ratioP2;P2;SDS_P1;SDS_P2;PMS_P1;PMS_P2;Temp;Humidity;BMP_temperature;BMP_pressure;BME280_temperature;BME280_humidity;BME280_pressure;Samples;Min_cycle;Max_cycle;Signal;HPM_P1;HPM_P2
2024/02/08 00:00:54;;;;;;;12.38;1.98;;;0.40;99.90;;;-1.20;96.59;99951.28;5071557;28;20056;-84
2024/02/08 00:03:20;;;;;;;9.68;1.45;;;0.50;99.90;;;-1.19;96.54;99941.78;5068614;28;20029;-84
2024/02/08 00:05:48;;;;;;;14.52;2.05;;;0.50;99.90;;;-1.19;96.30;99940.06;5074771;28;20028;-84
2024/02/08 00:08:17;;;;;;;13.63;1.60;;;0.50;99.90;;;-1.19;95.67;99941.78;5070527;28;20024;-83
2024/02/08 00:10:42;;;;;;;11.25;1.63;;;0.40;99.90;;;-1.22;95.72;99939.25;5081820;22;20498;-77
2024/02/08 00:13:08;;;;;;;10.63;1.42;;;0.40;99.90;;;-1.25;96.14;99947.91;5081276;28;20038;-78
2024/02/08 00:15:34;;;;;;;14.88;2.25;;;0.40;99.90;;;-1.29;95.99;99931.56;5101302;28;20053;-77
2024/02/08 00:18:00;;;;;;;17.70;2.67;;;0.40;99.90;;;-1.27;96.05;99934.16;5067959;28;20012;-77
2024/02/08 00:20:29;;;;;;;17.50;2.03;;;0.40;99.90;;;-1.28;95.83;99938.44;5053295;28;20089;-77
2024/02/08 00:22:58;;;;;;;9.02;1.75;;;0.40;99.90;;;-1.28;95.99;99932.41;5047471;28;20024;-78
2024/02/08 00:25:24;;;;;;;16.95;1.80;;;0.40;99.90;;;-1.29;95.73;99941.06;5064437;28;20077;-78
2024/02/08 00:28:01;;;;;;;15.65;1.40;;;0.40;99.90;;;-1.30;95.48;99939.31;5046721;28;20123;-78
2024/02/08 00:30:27;;;;;;;21.48;1.83;;;0.40;99.90;;;-1.32;95.85;99938.47;5050429;28;20062;-80
2024/02/08 00:32:53;;;;;;;19.77;2.00;;;0.40;99.90;;;-1.33;95.81;99934.22;5044653;28;20123;-78
2024/02/08 00:35:19;;;;;;;19.50;2.17;;;0.30;99.90;;;-1.37;95.31;99933.38;5048040;28;20069;-78
2024/02/08 00:37:49;;;;;;;14.07;1.63;;;0.30;99.90;;;-1.39;95.93;99929.09;5070459;28;20025;-78
2024/02/08 00:40:18;;;;;;;18.48;2.17;;;0.30;99.90;;;-1.42;95.17;99929.16;5046547;28;20115;-77
2024/02/08 00:42:47;;;;;;;10.98;1.65;;;0.30;99.90;;;-1.46;95.82;99921.41;5054561;28;20020;-80
2024/02/08 00:45:21;;;;;;;18.70;1.77;;;0.20;99.90;;;-1.46;95.74;99916.25;5066389;28;20036;-79
2024/02/08 00:47:54;;;;;;;9.68;1.13;;;0.20;99.90;;;-1.47;96.01;99917.13;5081703;28;20028;-79
2024/02/08 00:50:23;;;;;;;14.80;1.92;;;0.20;99.90;;;-1.48;96.25;99910.25;5045129;28;20056;-79
2024/02/08 00:52:49;;;;;;;12.35;1.88;;;0.20;99.90;;;-1.49;96.28;99910.25;5060141;28;20024;-80
2024/02/08 00:55:18;;;;;;;13.13;2.10;;;0.20;99.90;;;-1.51;96.26;99899.09;5064460;28;20390;-77
2024/02/08 00:57:44;;;;;;;12.35;2.75;;;0.20;99.90;;;-1.49;96.75;99905.09;5061499;28;20051;-77
2024/02/08 01:00:20;;;;;;;12.60;1.90;;;0.20;99.90;;;-1.49;96.98;99905.09;5060479;28;20068;-79
2024/02/08 01:02:45;;;;;;;12.38;2.38;;;0.20;99.90;;;-1.49;97.10;99902.50;5077432;28;20032;-79
2024/02/08 01:05:11;;;;;;;11.85;1.85;;;0.20;99.90;;;-1.48;97.35;99892.16;5067081;28;20475;-79
2024/02/08 01:07:37;;;;;;;14.93;2.83;;;0.60;99.90;;;-1.45;97.31;99894.75;5056398;28;20036;-79
2024/02/08 01:10:07;;;;;;;16.98;2.13;;;0.30;99.90;;;-1.42;96.82;99895.56;5051530;28;20025;-79
2024/02/08 01:12:33;;;;;;;20.77;1.90;;;0.20;99.90;;;-1.42;96.90;99893.00;5047404;28;20032;-79
2024/02/08 01:14:59;;;;;;;21.23;1.92;;;0.20;99.90;;;-1.39;96.97;99895.53;5063491;28;20086;-79
2024/02/08 01:17:25;;;;;;;10.75;1.63;;;0.30;99.90;;;-1.40;97.13;99886.06;5063055;28;20055;-79
2024/02/08 01:19:52;;;;;;;9.75;1.52;;;0.30;99.90;;;-1.40;96.61;99891.22;5064685;28;20024;-79
2024/02/08 01:22:20;;;;;;;12.32;1.55;;;0.30;99.90;;;-1.40;97.25;99892.09;5049045;28;20054;-79
2024/02/08 01:24:49;;;;;;;13.45;1.83;;;0.30;99.90;;;-1.38;96.31;99892.06;5081334;28;20051;-79
2024/02/08 01:27:20;;;;;;;13.38;1.80;;;0.30;99.90;;;-1.39;96.53;99882.63;5064536;28;20040;-79
2024/02/08 01:29:54;;;;;;;25.08;1.90;;;0.30;99.90;;;-1.35;96.68;99892.03;5063255;28;20074;-80
2024/02/08 01:32:20;;;;;;;11.18;1.80;;;0.30;99.90;;;-1.35;96.56;99886.88;5045983;28;20028;-79
2024/02/08 01:34:46;;;;;;;11.75;1.88;;;0.30;99.90;;;-1.34;96.69;99886.88;5066028;28;20051;-79
2024/02/08 01:37:14;;;;;;;10.20;1.70;;;0.40;99.90;;;-1.31;96.83;99891.16;5062414;28;20039;-79
2024/02/08 01:39:44;;;;;;;19.33;1.85;;;0.30;99.90;;;-1.31;96.16;99888.56;5062901;28;20027;-79
2024/02/08 01:42:16;;;;;;;5.85;0.98;;;0.40;99.90;;;-1.28;96.39;99901.44;5061051;28;20024;-79
2024/02/08 01:44:47;;;;;;;10.45;1.77;;;0.40;99.90;;;-1.27;95.78;99895.41;5048839;28;20052;-78
2024/02/08 01:47:17;;;;;;;15.15;1.90;;;0.40;99.90;;;-1.26;95.68;99889.34;5063825;28;20032;-78
2024/02/08 01:49:46;;;;;;;15.63;1.75;;;0.40;99.90;;;-1.27;95.40;99895.41;5061643;28;20054;-79
2024/02/08 01:52:20;;;;;;;13.55;1.90;;;0.40;99.90;;;-1.27;95.03;99887.66;5064612;28;20439;-79
2024/02/08 01:54:49;;;;;;;11.32;1.65;;;0.40;99.90;;;-1.28;94.78;99885.94;5062851;28;20119;-79
2024/02/08 01:57:17;;;;;;;12.45;1.98;;;0.40;99.90;;;-1.30;94.69;99885.09;5061040;28;20033;-79
2024/02/08 01:59:52;;;;;;;10.90;1.80;;;0.40;99.90;;;-1.31;94.67;99896.31;5062779;28;20055;-78
2024/02/08 02:02:22;;;;;;;13.55;1.40;;;0.30;99.90;;;-1.35;94.33;99879.13;5065821;28;20085;-78
2024/02/08 02:04:50;;;;;;;8.82;1.48;;;0.30;99.90;;;-1.36;94.77;99886.03;5065986;28;20031;-79
2024/02/08 02:07:18;;;;;;;11.57;1.38;;;0.30;99.90;;;-1.36;95.23;99880.00;5060656;28;20039;-79
2024/02/08 02:09:45;;;;;;;15.85;1.60;;;0.30;99.90;;;-1.37;95.29;99868.81;5080226;28;20071;-78
2024/02/08 02:12:18;;;;;;;13.77;1.48;;;0.30;99.90;;;-1.37;95.71;99867.97;5063970;28;20522;-78
2024/02/08 02:14:44;;;;;;;12.93;2.25;;;0.30;99.90;;;-1.34;96.09;99868.78;5062906;28;20035;-79
2024/02/08 02:17:26;;;;;;;8.63;1.35;;;0.40;99.90;;;-1.32;96.09;99868.75;5060430;28;20020;-78
2024/02/08 02:19:58;;;;;;;17.50;1.70;;;0.40;99.90;;;-1.32;96.99;99864.47;5050005;28;20115;-78
2024/02/08 02:22:24;;;;;;;12.30;1.45;;;0.40;99.90;;;-1.30;96.49;99862.69;5066076;28;20059;-78
2024/02/08 02:24:50;;;;;;;10.70;1.67;;;0.40;99.90;;;-1.28;96.84;99860.09;5063429;28;20059;-78
2024/02/08 02:28:19;;;;;;;16.05;1.48;;;0.40;99.90;;;-1.25;96.44;99849.75;5061089;28;20038;-78
2024/02/08 02:30:46;;;;;;;14.18;1.75;;;0.40;99.90;;;-1.24;97.03;99856.59;5061641;28;20732;-78
2024/02/08 02:33:13;;;;;;;15.55;1.42;;;0.40;99.90;;;-1.23;97.25;99855.75;5077477;28;20031;-78
2024/02/08 02:35:48;;;;;;;13.43;1.50;;;0.40;99.90;;;-1.21;97.64;99847.97;5061230;28;20032;-79
2024/02/08 02:38:17;;;;;;;10.07;1.10;;;0.50;99.90;;;-1.19;97.59;99839.31;5065026;28;20036;-78
2024/02/08 02:40:48;;;;;;;13.13;1.33;;;0.50;99.90;;;-1.13;97.73;99843.56;5065453;28;20023;-78
2024/02/08 02:43:14;;;;;;;16.73;1.67;;;0.50;99.90;;;-1.08;97.75;99839.16;5057057;28;20048;-78
2024/02/08 02:45:41;;;;;;;14.63;1.40;;;0.60;99.90;;;-1.05;98.13;99839.16;5067082;28;20456;-78
2024/02/08 02:48:07;;;;;;;11.35;0.93;;;0.60;99.90;;;-0.99;98.15;99827.84;5067590;28;20029;-79
2024/02/08 02:50:43;;;;;;;20.13;1.50;;;0.70;99.90;;;-0.94;98.25;99824.34;5047997;28;20398;-78
2024/02/08 02:53:09;;;;;;;13.73;2.63;;;0.70;99.90;;;-0.92;98.11;99825.19;5049174;28;20561;-78
2024/02/08 02:55:37;;;;;;;11.10;1.38;;;0.70;99.90;;;-0.89;98.24;99826.84;5066222;28;20120;-79
2024/02/08 02:58:03;;;;;;;20.38;1.73;;;0.80;99.90;;;-0.86;98.01;99819.06;5052044;28;20111;-78
2024/02/08 03:00:36;;;;;;;12.43;1.35;;;0.80;99.90;;;-0.84;98.01;99813.00;5068049;28;20020;-78
2024/02/08 03:03:10;;;;;;;10.90;1.45;;;0.80;99.90;;;-0.80;98.50;99806.03;5067590;28;20695;-79
2024/02/08 03:05:40;;;;;;;13.35;1.67;;;0.80;99.90;;;-0.78;98.22;99804.28;5050624;28;20032;-78
2024/02/08 03:08:06;;;;;;;21.13;1.85;;;0.90;99.90;;;-0.76;98.13;99807.72;5063805;28;20032;-79
2024/02/08 03:10:36;;;;;;;20.92;1.52;;;0.90;99.90;;;-0.74;98.05;99805.09;5063925;28;20154;-79
2024/02/08 03:13:03;;;;;;;15.32;2.75;;;0.90;99.90;;;-0.73;98.09;99807.69;5049071;28;20086;-78
2024/02/08 03:15:29;;;;;;;13.57;1.38;;;0.90;99.90;;;-0.71;98.40;99807.66;5073735;28;20032;-78
2024/02/08 03:17:55;;;;;;;14.40;1.67;;;0.90;99.90;;;-0.69;98.17;99811.03;5081337;28;20444;-78
2024/02/08 03:20:29;;;;;;;11.02;1.98;;;1.00;99.90;;;-0.68;98.18;99808.44;5065911;28;20028;-78
2024/02/08 03:22:57;;;;;;;13.43;1.33;;;1.00;99.90;;;-0.67;98.37;99801.53;5066559;28;20139;-78
2024/02/08 03:25:23;;;;;;;13.07;1.67;;;1.00;99.90;;;-0.66;98.54;99803.25;5067533;28;20062;-79
2024/02/08 03:27:51;;;;;;;20.50;1.60;;;1.00;99.90;;;-0.64;98.04;99804.09;5064404;28;20068;-79
2024/02/08 03:31:01;;;;;;;15.20;1.42;;;1.00;99.90;;;-0.64;98.02;99802.34;5065705;28;20063;-78
2024/02/08 03:33:27;;;;;;;15.75;1.88;;;1.00;99.90;;;-0.63;98.41;99793.75;5084398;28;20028;-79
2024/02/08 03:35:53;;;;;;;13.05;1.50;;;1.00;99.90;;;-0.63;98.48;99798.91;5067187;28;20040;-79
2024/02/08 03:38:28;;;;;;;12.82;1.90;;;1.00;99.90;;;-0.62;98.33;99800.59;5063256;28;20025;-79
2024/02/08 03:40:54;;;;;;;28.73;2.25;;;1.00;99.90;;;-0.60;98.28;99790.25;5080535;28;20504;-78
2024/02/08 03:43:23;;;;;;;11.90;1.20;;;1.00;99.90;;;-0.59;99.03;99797.09;5079629;28;20428;-79
2024/02/08 03:45:49;;;;;;;15.70;1.88;;;1.00;99.90;;;-0.59;99.01;99791.09;5063441;28;20029;-79
2024/02/08 03:48:19;;;;;;;19.33;1.50;;;1.30;99.90;;;-0.57;99.20;99785.00;5048234;28;20032;-79
2024/02/08 03:50:50;;;;;;;14.27;1.73;;;1.00;99.90;;;-0.56;99.04;99784.16;5049873;28;20031;-79
2024/02/08 03:53:19;;;;;;;18.25;2.22;;;1.10;99.90;;;-0.54;99.11;99784.09;5072051;28;20052;-78
2024/02/08 03:55:47;;;;;;;14.30;1.50;;;1.10;99.90;;;-0.51;99.59;99791.81;5083218;28;20479;-79
2024/02/08 03:58:18;;;;;;;14.10;2.20;;;1.10;99.90;;;-0.48;99.80;99790.03;5061407;28;20501;-79
2024/02/08 04:00:47;;;;;;;15.50;1.95;;;1.10;99.90;;;-0.47;99.71;99786.56;5072963;28;20028;-79
2024/02/08 04:03:43;;;;;;;9.88;1.60;;;1.20;99.90;;;-0.46;99.69;99787.41;5064850;28;20441;-78
2024/02/08 04:06:16;;;;;;;16.13;1.52;;;1.20;99.90;;;-0.45;99.82;99784.81;5065952;28;20032;-79
2024/02/08 04:55:41;;;;;;;17.75;1.95;;;1.40;99.90;;;-0.22;98.05;99788.72;5065665;28;20493;-78
2024/02/08 04:58:09;;;;;;;16.23;1.48;;;1.20;99.90;;;-0.17;98.04;99786.06;5044596;28;20024;-80
2024/02/08 05:00:35;;;;;;;16.23;1.80;;;1.50;99.90;;;-0.14;98.41;99780.84;5060423;28;20036;-80
2024/02/08 05:03:02;;;;;;;10.07;1.38;;;1.50;99.90;;;-0.13;97.72;99783.41;5081532;28;20306;-79
2024/02/08 05:05:28;;;;;;;32.35;1.75;;;1.50;99.90;;;-0.11;97.51;99780.78;5063533;28;20032;-79
2024/02/08 05:07:53;;;;;;;24.60;1.73;;;1.50;99.90;;;-0.07;97.46;99783.28;5063367;28;20056;-79
2024/02/08 05:10:27;;;;;;;22.73;2.28;;;1.60;99.90;;;-0.02;96.93;99783.22;5042851;28;20448;-79
2024/02/08 05:12:53;;;;;;;11.30;1.35;;;1.60;99.90;;;0.00;96.48;99773.69;5065964;28;20024;-78
2024/02/08 05:15:22;;;;;;;13.18;1.70;;;1.70;99.90;;;0.05;96.45;99771.88;5060050;28;20028;-79
2024/02/08 05:17:54;;;;;;;22.02;2.35;;;1.70;99.90;;;0.10;96.19;99780.38;5045240;28;20017;-79
2024/02/08 05:20:20;;;;;;;27.27;2.20;;;1.70;99.90;;;0.14;95.59;99779.44;5063515;28;20024;-78
2024/02/08 05:22:45;;;;;;;17.42;2.75;;;1.80;99.90;;;0.14;95.21;99776.84;5082440;28;20024;-78
2024/02/08 05:25:11;;;;;;;18.88;1.85;;;1.80;99.90;;;0.15;94.82;99783.75;5063705;28;20676;-78
2024/02/08 05:27:37;;;;;;;19.20;2.28;;;1.80;99.90;;;0.17;94.99;99782.00;5060557;28;20029;-79
2024/02/08 05:30:07;;;;;;;13.77;1.40;;;1.80;99.90;;;0.24;94.37;99787.03;5064060;28;20461;-78
2024/02/08 05:32:35;;;;;;;24.88;1.42;;;1.90;99.90;;;0.24;94.04;99787.03;5064768;28;20040;-78
2024/02/08 05:35:04;;;;;;;17.08;2.15;;;1.90;99.90;;;0.25;93.91;99778.41;5065527;28;20118;-78
2024/02/08 05:37:31;;;;;;;14.63;1.42;;;1.90;99.90;;;0.25;93.83;99783.56;5064022;28;20397;-79
2024/02/08 05:40:00;;;;;;;22.30;2.08;;;1.90;99.90;;;0.26;93.17;99785.25;5060916;28;20023;-79
2024/02/08 05:42:26;;;;;;;16.08;2.60;;;1.90;99.90;;;0.31;93.20;99783.47;5061950;28;20029;-79
2024/02/08 05:44:53;;;;;;;13.90;1.58;;;1.90;99.90;;;0.28;93.08;99791.28;5062253;28;20123;-78
2024/02/08 05:47:26;;;;;;;17.30;1.55;;;1.90;99.90;;;0.31;92.84;99789.47;5049410;28;20120;-79
2024/02/08 05:49:53;;;;;;;17.88;1.83;;;1.90;99.90;;;0.33;92.87;99792.06;5046232;28;20107;-78
2024/02/08 05:52:20;;;;;;;11.70;1.98;;;1.90;99.90;;;0.34;92.57;99793.75;5077852;28;20060;-78
2024/02/08 05:54:45;;;;;;;20.40;1.92;;;1.90;99.90;;;0.37;92.35;99791.13;5064259;28;20123;-78
2024/02/08 05:57:21;;;;;;;15.07;1.83;;;2.00;99.90;;;0.39;92.25;99794.53;5062020;28;20104;-78
2024/02/08 05:59:47;;;;;;;11.48;1.30;;;2.00;99.90;;;0.39;92.39;99797.13;5062894;28;20029;-79
2024/02/08 06:02:22;;;;;;;13.93;1.75;;;2.00;99.90;;;0.39;92.22;99797.13;5069689;28;20039;-78
2024/02/08 06:04:59;;;;;;;15.13;1.77;;;2.00;99.90;;;0.38;92.23;99795.41;5066971;28;20096;-78
2024/02/08 06:07:29;;;;;;;14.60;1.70;;;;;;;0.36;91.80;99787.66;5063550;28;20028;-78
2024/02/08 06:10:07;;;;;;;18.35;1.90;;;2.00;99.90;;;0.37;91.91;99799.72;5065028;28;20225;-78
2024/02/08 06:12:42;;;;;;;15.02;1.88;;;2.00;99.90;;;0.37;91.95;99789.38;5069096;28;20070;-78
2024/02/08 06:15:21;;;;;;;14.52;1.55;;;2.00;99.90;;;0.39;91.71;99791.94;5067914;28;20051;-78
2024/02/08 06:17:57;;;;;;;18.77;2.20;;;2.00;99.90;;;0.35;91.58;99788.53;5064025;28;20028;-78
2024/02/08 06:20:43;;;;;;;;;;;2.00;99.90;;;0.34;92.20;99783.38;5069476;28;20024;-78
2024/02/08 06:23:16;;;;;;;19.80;2.10;;;2.00;99.90;;;0.34;91.71;99789.41;5060406;28;19912;-78
2024/02/08 06:28:46;;;;;;;17.70;1.73;;;2.00;99.90;;;0.36;92.28;99798.00;5067505;28;20066;-78
2024/02/08 06:31:15;;;;;;;10.25;1.42;;;1.90;99.90;;;0.36;92.27;99798.00;5068108;28;20032;-78
2024/02/08 06:36:58;;;;;;;17.63;1.85;;;2.00;99.90;;;0.40;92.43;99802.25;5071196;28;20043;-78
2024/02/08 06:39:44;;;;;;;20.58;2.45;;;2.00;99.90;;;0.40;92.37;99804.84;5050223;28;20453;-78
2024/02/08 06:45:44;;;;;;;20.48;2.50;;;2.00;99.90;;;0.42;92.61;99810.00;5042400;28;20065;-78
2024/02/08 06:48:32;;;;;;;16.45;1.85;;;2.00;99.90;;;0.41;92.83;99805.69;5042488;28;20032;-78
2024/02/08 07:37:46;;;;;;;21.60;2.07;;;1.80;99.90;;;0.14;100.00;99818.28;5035575;28;20068;-77
2024/02/08 07:40:23;;;;;;;17.98;1.50;;;1.80;99.90;;;0.11;100.00;99818.34;5034006;28;20057;-77
2024/02/08 07:43:34;;;;;;;19.25;1.80;;;1.70;99.90;;;0.09;100.00;99814.94;5039389;28;20022;-78
2024/02/08 07:46:03;;;;;;;25.13;2.30;;;1.70;99.90;;;0.06;100.00;99807.22;5036278;28;20040;-77
2024/02/08 07:48:42;;;;;;;13.35;2.25;;;1.60;99.90;;;0.06;100.00;99803.78;5016660;28;20025;-78
2024/02/08 07:51:10;;;;;;;28.85;2.83;;;1.70;99.90;;;0.04;100.00;99806.38;5035730;28;20464;-78
2024/02/08 07:53:54;;;;;;;19.08;2.22;;;1.70;99.90;;;0.05;100.00;99808.09;5035662;28;20133;-77
2024/02/08 07:59:03;;;;;;;15.70;2.28;;;1.70;99.90;;;0.02;100.00;99797.78;5035837;28;20022;-78
2024/02/08 08:01:38;;;;;;;23.60;2.60;;;1.70;99.90;;;0.03;100.00;99803.84;5038233;28;20040;-77
2024/02/08 08:04:09;;;;;;;15.40;2.17;;;1.60;99.90;;;-0.01;100.00;99803.88;5016707;28;20049;-77
2024/02/08 08:06:48;;;;;;;15.70;2.42;;;1.60;99.90;;;0.03;100.00;99812.44;5035793;28;20385;-77
2024/02/08 08:09:22;;;;;;;17.52;2.45;;;1.70;99.90;;;0.05;100.00;99813.28;5054763;28;20040;-78
2024/02/08 08:11:51;;;;;;;12.15;2.40;;;1.60;99.90;;;0.07;100.00;99808.09;5065809;28;20473;-78
2024/02/08 08:17:10;;;;;;;24.58;3.58;;;1.70;99.90;;;0.16;100.00;99811.34;5068891;28;20402;-78
2024/02/08 08:19:41;;;;;;;17.42;3.13;;;1.80;99.90;;;0.18;100.00;99804.41;5068595;28;20513;-78
2024/02/08 08:25:00;;;;;;;14.93;3.30;;;1.80;99.90;;;0.25;100.00;99793.94;5064584;28;20032;-77
2024/02/08 08:27:33;;;;;;;19.65;2.70;;;1.80;99.90;;;0.27;100.00;99805.13;5067078;28;20065;-78
2024/02/08 08:29:59;;;;;;;19.27;2.45;;;1.80;99.90;;;0.25;100.00;99812.06;5063528;28;20028;-78
2024/02/08 08:38:13;;;;;;;15.25;2.83;;;2.00;99.90;;;0.47;100.00;99818.50;5065485;28;20633;-77
2024/02/08 08:40:39;;;;;;;17.95;2.53;;;2.00;99.90;;;0.56;100.00;99820.94;5067818;28;20059;-77
2024/02/08 08:43:19;;;;;;;14.88;2.95;;;2.10;99.90;;;0.64;100.00;99814.75;5066218;28;20078;-78
2024/02/08 08:45:50;;;;;;;21.55;2.72;;;2.20;99.90;;;0.74;100.00;99824.03;5067923;28;20031;-77
2024/02/08 08:48:18;;;;;;;27.17;3.35;;;2.30;99.90;;;0.79;100.00;99815.25;5064126;28;20036;-77
2024/02/08 08:50:57;;;;;;;19.27;3.58;;;2.30;99.90;;;0.89;100.00;99825.47;5049323;28;20039;-77
2024/02/08 08:53:28;;;;;;;18.48;3.50;;;2.40;99.90;;;0.95;100.00;99818.41;5066245;28;20032;-78
2024/02/08 08:55:58;;;;;;;23.90;3.33;;;2.50;99.90;;;0.98;100.00;99818.31;5078725;28;20502;-77
2024/02/08 08:58:39;;;;;;;23.98;4.43;;;2.50;99.90;;;1.05;100.00;99818.19;5054314;28;20445;-77
2024/02/08 09:01:21;;;;;;;26.83;4.50;;;2.50;99.90;;;1.07;100.00;99819.00;5083247;28;20538;-77
2024/02/08 09:04:35;;;;;;;27.27;3.47;;;2.60;99.90;;;1.06;100.00;99815.56;5085918;28;20043;-78
2024/02/08 09:06:47;;;;;;;26.33;3.33;;;2.50;99.90;;;0.99;100.00;99812.25;5061607;28;20077;-79
2024/02/08 09:09:38;;;;;;;23.25;3.03;;;2.50;99.90;;;1.02;100.00;99819.13;5065909;28;20655;-77
2024/02/08 09:12:05;;;;;;;28.20;3.05;;;2.60;99.90;;;1.03;100.00;99811.28;5082182;28;20029;-77
2024/02/08 09:14:34;;;;;;;12.05;2.50;;;2.60;99.90;;;1.09;100.00;99823.28;5066725;28;20025;-78
2024/02/08 09:17:08;;;;;;;29.27;3.30;;;2.70;99.90;;;1.16;100.00;99827.41;5065298;28;20036;-77
2024/02/08 09:19:36;;;;;;;16.23;2.55;;;2.70;99.90;;;1.23;100.00;99826.41;5067286;28;20472;-78
2024/02/08 09:22:06;;;;;;;22.40;2.60;;;2.70;99.90;;;1.29;100.00;99822.81;5082862;28;20033;-77
2024/02/08 09:24:38;;;;;;;16.67;2.70;;;2.80;99.90;;;1.36;100.00;99816.63;5070082;28;20032;-78
2024/02/08 09:27:25;;;;;;;18.02;2.80;;;2.90;99.90;;;1.40;100.00;99815.66;5064152;28;20063;-78
2024/02/08 09:29:56;;;;;;;17.75;2.90;;;2.90;99.90;;;1.42;100.00;99810.41;5069695;28;20490;-77
2024/02/08 09:35:16;;;;;;;29.25;3.15;;;3.00;99.90;;;1.57;99.95;99817.81;5066228;28;20039;-78
2024/02/08 09:37:53;;;;;;;25.48;3.28;;;3.10;99.90;;;1.63;99.46;99814.25;5063236;28;20078;-84
2024/02/08 09:40:33;;;;;;;17.52;2.83;;;3.10;99.90;;;1.64;99.12;99813.34;5065458;28;20115;-78
2024/02/08 09:43:16;;;;;;;22.38;2.92;;;3.20;99.90;;;1.71;99.03;99814.91;5061436;28;20080;-79
2024/02/08 09:45:44;;;;;;;25.58;2.88;;;3.30;99.90;;;1.79;98.82;99815.56;5066643;28;20032;-78
2024/02/08 09:48:25;;;;;;;14.30;3.00;;;3.30;99.90;;;1.88;98.24;99814.50;5062591;28;20028;-78
2024/02/08 09:51:11;;;;;;;13.13;2.67;;;3.40;99.90;;;1.93;97.95;99814.38;5063042;28;20426;-78
2024/02/08 09:53:48;;;;;;;16.50;2.65;;;3.40;99.90;;;1.98;97.43;99822.88;5049774;28;20020;-77
2024/02/08 09:56:25;;;;;;;25.95;3.53;;;3.50;99.90;;;2.04;97.46;99827.91;5035316;28;20049;-78
2024/02/08 09:59:18;;;;;;;25.67;2.47;;;3.60;99.90;;;2.12;96.98;99825.97;5045161;28;20910;-78
2024/02/08 10:01:44;;;;;;;20.55;2.53;;;3.70;99.90;;;2.23;96.73;99825.69;5048732;28;20032;-78
2024/02/08 10:04:19;;;;;;;14.43;2.55;;;3.80;99.90;;;2.32;96.32;99829.78;5048067;28;20071;-78
2024/02/08 10:06:45;;;;;;;11.35;2.22;;;3.80;99.90;;;2.42;96.01;99823.47;5051089;28;20105;-77
2024/02/08 10:12:29;;;;;;;18.10;3.00;;;4.00;99.90;;;2.58;95.21;99827.31;5045154;28;20040;-78
2024/02/08 10:14:59;;;;;;;15.63;2.78;;;4.10;99.90;;;2.61;94.64;99827.25;5045129;28;20087;-77
2024/02/08 10:17:40;;;;;;;13.98;2.45;;;4.10;99.90;;;2.71;94.13;99832.19;5043466;28;20033;-78
2024/02/08 10:23:48;;;;;;;19.75;3.38;;;4.20;99.90;;;2.80;93.26;99822.34;5053035;28;20024;-78
2024/02/08 10:28:47;;;;;;;15.40;2.72;;;4.40;99.90;;;3.02;92.43;99819.13;5049071;28;20175;-78
2024/02/08 10:31:22;;;;;;;20.00;2.60;;;4.50;99.90;;;3.04;91.48;99818.16;5056459;28;20036;-78
2024/02/08 10:34:08;;;;;;;14.70;2.63;;;4.50;99.90;;;3.11;91.23;99813.66;5047188;28;20047;-79
2024/02/08 10:36:44;;;;;;;19.92;2.90;;;4.50;99.90;;;3.13;90.61;99817.03;5045672;28;20104;-78
2024/02/08 10:39:26;;;;;;;22.40;2.78;;;4.60;99.90;;;3.17;90.26;99816.03;5044831;28;20033;-79
2024/02/08 10:42:00;;;;;;;13.88;2.40;;;4.70;99.90;;;3.22;89.85;99808.13;5052233;28;20025;-78
2024/02/08 10:44:29;;;;;;;13.27;2.50;;;4.70;99.90;;;3.28;90.06;99805.31;5032882;28;20406;-78
2024/02/08 10:47:19;;;;;;;22.08;2.90;;;4.70;99.90;;;3.34;90.25;99802.50;5050865;28;20029;-78
2024/02/08 10:49:51;;;;;;;20.45;2.50;;;4.80;99.90;;;3.40;89.76;99804.94;5058978;28;20047;-78
2024/02/08 10:52:24;;;;;;;11.20;2.30;;;4.90;99.90;;;3.50;89.71;99805.50;5057994;28;20033;-78
2024/02/08 10:54:55;;;;;;;16.17;2.67;;;5.00;99.90;;;3.61;89.84;99797.34;5033157;28;20423;-78
2024/02/08 11:00:49;;;;;;;18.52;2.95;;;5.00;99.90;;;3.52;87.23;99797.63;5047938;28;20016;-79
2024/02/08 11:03:07;;;;;;;7.55;1.88;;;4.90;99.90;;;3.34;86.70;99791.25;5051147;28;20605;-79
2024/02/08 11:06:00;;;;;;;16.58;2.25;;;4.80;99.90;;;3.30;86.57;99787.88;5064420;28;20055;-79
2024/02/08 11:08:50;;;;;;;16.20;2.40;;;4.70;99.90;;;3.20;86.26;99792.56;5054267;28;20029;-79
2024/02/08 11:11:20;;;;;;;25.70;3.95;;;4.70;99.90;;;3.14;86.39;99787.53;5047281;28;20055;-78
2024/02/08 11:13:53;;;;;;;34.83;8.50;;;4.60;99.90;;;3.08;86.92;99782.50;5046339;28;20055;-78
2024/02/08 11:16:37;;;;;;;14.93;4.05;;;4.60;99.90;;;3.05;87.13;99787.81;5024742;28;20241;-79
2024/02/08 11:19:09;;;;;;;26.20;6.68;;;4.50;99.90;;;2.95;86.77;99778.59;5043923;28;20017;-78
2024/02/08 11:21:44;;;;;;;17.40;5.32;;;4.40;99.90;;;2.87;86.96;99776.22;5046519;28;20024;-78
2024/02/08 11:27:28;;;;;;;17.67;3.17;;;4.40;99.90;;;2.90;87.67;99772.69;5044484;28;20063;-79
2024/02/08 11:29:53;;;;;;;14.52;3.00;;;4.40;99.90;;;2.89;87.71;99769.22;5047038;28;20148;-79
2024/02/08 11:32:22;;;;;;;23.40;4.20;;;4.40;99.90;;;2.90;87.69;99773.53;5044937;28;20168;-78
2024/02/08 11:34:54;;;;;;;26.08;7.10;;;4.40;99.90;;;2.87;87.41;99771.88;5047875;28;20053;-79
2024/02/08 11:37:29;;;;;;;18.98;3.45;;;4.40;99.90;;;2.88;87.67;99770.13;5031493;28;20032;-79
2024/02/08 11:40:01;;;;;;;16.33;3.25;;;4.40;99.90;;;2.86;87.73;99764.13;5063559;28;20060;-78
2024/02/08 11:42:36;;;;;;;16.75;2.65;;;4.40;99.90;;;2.88;87.80;99764.94;5045511;28;20033;-79
2024/02/08 11:45:08;;;;;;;15.60;2.80;;;4.40;99.90;;;2.93;88.01;99772.59;5045788;28;20032;-79
2024/02/08 11:47:37;;;;;;;14.63;2.90;;;4.40;99.90;;;2.96;87.87;99767.28;5044345;28;20103;-78
2024/02/08 11:50:11;;;;;;;21.67;3.15;;;4.40;99.90;;;2.99;88.08;99762.84;5051555;28;20067;-79
2024/02/08 11:52:38;;;;;;;20.45;3.03;;;4.50;99.90;;;3.05;88.55;99770.47;5047155;28;20499;-79
2024/02/08 11:55:15;;;;;;;20.08;2.83;;;4.50;99.90;;;3.08;87.75;99766.91;5051794;28;20040;-79
2024/02/08 11:57:43;;;;;;;13.60;3.00;;;4.60;99.90;;;3.16;88.58;99766.69;5045744;28;20379;-79
2024/02/08 12:00:16;;;;;;;24.00;2.80;;;4.60;99.90;;;3.19;88.18;99776.97;5045227;28;20033;-79
2024/02/08 12:03:01;;;;;;;20.25;3.33;;;4.70;99.90;;;3.23;88.02;99778.59;5027851;28;20024;-79
2024/02/08 12:05:33;;;;;;;23.55;5.25;;;4.70;99.90;;;3.26;87.99;99770.66;5024065;28;20025;-79
2024/02/08 12:08:08;;;;;;;31.75;8.38;;;4.70;99.90;;;3.20;87.54;99770.91;5043024;28;20082;-80
2024/02/08 12:10:47;;;;;;;30.02;8.27;;;4.70;99.90;;;3.17;87.27;99770.97;5043883;28;20033;-79
2024/02/08 12:13:13;;;;;;;20.80;5.60;;;4.70;99.90;;;3.15;86.91;99773.63;5036259;28;20059;-79
2024/02/08 12:15:44;;;;;;;29.20;4.95;;;4.60;99.90;;;3.13;87.13;99772.81;5043691;28;20394;-80
2024/02/08 12:18:12;;;;;;;18.80;4.93;;;4.60;99.90;;;3.10;87.00;99774.69;5042839;28;20052;-80
2024/02/08 12:20:37;;;;;;;23.17;4.82;;;4.60;99.90;;;3.02;86.84;99767.97;5043079;28;20151;-80
2024/02/08 12:23:04;;;;;;;21.42;4.15;;;4.50;99.90;;;3.04;86.72;99767.91;5046773;28;20033;-79
2024/02/08 12:25:33;;;;;;;25.65;3.85;;;4.60;99.90;;;3.06;87.18;99769.56;5045716;28;20094;-80
2024/02/08 12:28:06;;;;;;;16.52;2.97;;;4.60;99.90;;;3.11;86.94;99763.34;5033692;28;20025;-80
2024/02/08 12:30:44;;;;;;;18.08;3.78;;;4.60;99.90;;;3.15;86.96;99762.38;5046015;28;20036;-81
2024/02/08 12:33:11;;;;;;;16.38;3.25;;;4.60;99.90;;;3.20;87.17;99763.94;5041399;28;20037;-81
2024/02/08 12:35:46;;;;;;;26.92;3.35;;;4.70;99.90;;;3.28;87.24;99761.06;5048266;28;20027;-81
2024/02/08 12:38:16;;;;;;;17.80;3.35;;;4.70;99.90;;;3.26;86.85;99749.84;5027454;28;20609;-80
2024/02/08 12:41:06;;;;;;;14.75;3.83;;;4.80;99.90;;;3.36;86.43;99764.28;5044007;28;20140;-81
2024/02/08 12:43:33;;;;;;;27.45;3.65;;;4.80;99.90;;;3.40;86.32;99755.47;5048681;28;20098;-81
2024/02/08 12:46:01;;;;;;;15.30;3.20;;;4.90;99.90;;;3.49;86.01;99756.94;5033007;28;20123;-81
2024/02/08 12:48:35;;;;;;;20.40;4.00;;;5.00;99.90;;;3.58;86.13;99756.63;5045677;28;20036;-82
2024/02/08 12:51:04;;;;;;;19.52;3.22;;;5.10;99.90;;;3.67;85.94;99758.06;5051085;28;20058;-81
2024/02/08 12:53:33;;;;;;;22.10;3.15;;;5.10;99.90;;;3.76;85.64;99760.38;5045305;28;20398;-81
2024/02/08 12:56:09;;;;;;;14.82;2.72;;;5.20;99.90;;;3.85;86.12;99764.41;5044472;28;20040;-81
2024/02/08 12:58:40;;;;;;;;;;;5.30;99.90;;;3.86;85.20;99760.88;5042559;28;20020;-81